»·PEaware :: N493W KONT-KRNO

N493W :: KONT-KRNO

FLIGHT INFORMATION

Flight Status: Arrived
Operator: Privately registered:
United States
More flights under this callsign
Pilot: Patrick L. (29141)
Aircraft: PILATUS PC-12 EAGLE
(PC12)
More flights by this aircraft type
Origin: KONT Ontario Intl
United States
Destination: KRNO Reno/Tahoe Intl
United States
More flights between these airports :: More routes between these airports
Route: PDZ J50 EHF J5 FMG
File this flight plan on PilotEdge
Remarks:
Altitude:
(Current/Filed)
24,000ft
Speed:
(Current/Filed)
280kts
Departed: 26-Jun-20 01:45 PM
Arrived: 26-Jun-20 03:19 PM
Distance/Time
Traveled:
343nm/1:34
Distance/Time
To Go:
Arrived

Flight Plot

Page will automatically refresh every two minutes.

Flight plan parsing failed; only flown route is shown


Map Options




Map Legend


Flown Route
Filed Route
Departure Airport
Arrival Airport
Navaid (VOR, NDB)
Fix

Horizontal Profiles

Position Reports

Time Latitude Longitude Heading Altitude Ground
Speed
26-Jun-20 13:11 34.051687 -117.603154 269 909ft 0kts
26-Jun-20 13:12 34.051687 -117.603154 269 909ft 0kts
26-Jun-20 13:13 34.051687 -117.603154 269 909ft 0kts
26-Jun-20 13:14 34.051687 -117.603154 269 909ft 0kts
26-Jun-20 13:15 34.051687 -117.603154 269 909ft 0kts
26-Jun-20 13:16 34.051687 -117.603154 269 909ft 0kts
26-Jun-20 13:17 34.051687 -117.603154 269 909ft 0kts
26-Jun-20 13:23 34.051687 -117.603154 269 909ft 0kts
26-Jun-20 13:24 34.051687 -117.603154 269 909ft 0kts
26-Jun-20 13:25 34.051687 -117.603154 269 909ft 0kts
26-Jun-20 13:26 34.051687 -117.603154 269 909ft 0kts
26-Jun-20 13:27 34.051687 -117.603154 269 909ft 0kts
26-Jun-20 13:28 34.051687 -117.603154 269 909ft 0kts
26-Jun-20 13:29 34.051687 -117.603154 269 909ft 0kts
26-Jun-20 13:30 34.051687 -117.603153 269 909ft 0kts
26-Jun-20 13:31 34.051687 -117.603153 269 909ft 0kts
26-Jun-20 13:32 34.051687 -117.603153 269 909ft 0kts
26-Jun-20 13:33 34.051687 -117.603153 269 909ft 0kts
26-Jun-20 13:34 34.051687 -117.603153 269 909ft 0kts
26-Jun-20 13:35 34.051687 -117.603153 269 909ft 0kts
26-Jun-20 13:36 34.051687 -117.603154 269 909ft 0kts
26-Jun-20 13:37 34.051913 -117.603368 0 910ft 0kts
26-Jun-20 13:38 34.053870 -117.602279 77 916ft 15kts
26-Jun-20 13:39 34.053829 -117.596325 90 914ft 19kts
26-Jun-20 13:40 34.053826 -117.589714 87 914ft 20kts
26-Jun-20 13:41 34.053849 -117.583150 82 916ft 15kts
26-Jun-20 13:42 34.054032 -117.582562 32 917ft 0kts
26-Jun-20 13:43 34.054401 -117.582511 356 919ft 13kts
26-Jun-20 13:44 34.055244 -117.607542 271 1449ft 119kts
26-Jun-20 13:45 34.056662 -117.657183 271 2344ft 184kts
26-Jun-20 13:46 34.058429 -117.723025 271 3563ft 199kts
26-Jun-20 13:47 34.060014 -117.789014 271 4966ft 195kts
26-Jun-20 13:48 34.061427 -117.853971 276 6384ft 192kts
26-Jun-20 13:49 34.079873 -117.913516 291 7889ft 188kts
26-Jun-20 13:50 34.099284 -117.971753 291 9391ft 187kts
26-Jun-20 13:51 34.118003 -118.029202 291 11216ft 184kts
26-Jun-20 13:52 34.136020 -118.086699 291 13124ft 182kts
26-Jun-20 13:53 34.154605 -118.147571 292 14031ft 222kts
26-Jun-20 13:54 34.194087 -118.198406 329 15396ft 210kts
26-Jun-20 13:55 34.242881 -118.233081 329 16993ft 199kts
26-Jun-20 13:56 34.289863 -118.265610 329 18588ft 192kts
26-Jun-20 13:57 34.335612 -118.297055 329 20189ft 186kts
26-Jun-20 13:58 34.379657 -118.327313 328 21777ft 180kts
26-Jun-20 13:59 34.421782 -118.356203 328 23214ft 171kts
26-Jun-20 14:00 34.464693 -118.385851 328 24047ft 192kts
26-Jun-20 14:01 34.515707 -118.420963 328 24047ft 226kts
26-Jun-20 14:02 34.572195 -118.459756 328 24044ft 238kts
26-Jun-20 14:03 34.630336 -118.499841 328 24041ft 242kts
26-Jun-20 14:04 34.689118 -118.540504 328 24036ft 243kts
26-Jun-20 14:05 34.748320 -118.581558 332 24041ft 244kts
26-Jun-20 14:06 34.807065 -118.622342 332 24097ft 243kts
26-Jun-20 14:07 34.865367 -118.662890 331 24142ft 243kts
26-Jun-20 14:08 34.924309 -118.703956 332 24152ft 246kts
26-Jun-20 14:09 34.984062 -118.745662 332 24152ft 251kts
26-Jun-20 14:10 35.045472 -118.788596 332 24151ft 257kts
26-Jun-20 14:11 35.107848 -118.832266 332 24060ft 263kts
26-Jun-20 14:12 35.171549 -118.876933 332 23974ft 264kts
26-Jun-20 14:13 35.234657 -118.921290 332 23937ft 260kts
26-Jun-20 14:14 35.296976 -118.965181 333 23937ft 257kts
26-Jun-20 14:15 35.358365 -119.008494 333 23936ft 254kts
26-Jun-20 14:16 35.419264 -119.051549 333 23936ft 251kts
26-Jun-20 14:17 35.479822 -119.093369 340 23933ft 249kts
26-Jun-20 14:18 35.547615 -119.105344 354 23932ft 246kts
26-Jun-20 14:19 35.615481 -119.114737 354 23928ft 246kts
26-Jun-20 14:20 35.683659 -119.123747 354 23925ft 246kts
26-Jun-20 14:21 35.751454 -119.132669 354 23931ft 245kts
26-Jun-20 14:22 35.819249 -119.141607 354 23937ft 245kts
26-Jun-20 14:23 35.887025 -119.150569 354 23941ft 245kts
26-Jun-20 14:24 35.954648 -119.159517 354 23946ft 245kts
26-Jun-20 14:25 36.022346 -119.168479 354 23950ft 245kts
26-Jun-20 14:26 36.089785 -119.177447 354 23949ft 245kts
26-Jun-20 14:27 36.157197 -119.186522 354 23956ft 246kts
26-Jun-20 14:28 36.225164 -119.195587 354 23956ft 246kts
26-Jun-20 14:29 36.293271 -119.204687 354 23955ft 246kts
26-Jun-20 14:30 36.361219 -119.213771 354 23955ft 246kts
26-Jun-20 14:31 36.429483 -119.222913 354 23954ft 246kts
26-Jun-20 14:32 36.497434 -119.232030 354 23954ft 246kts
26-Jun-20 14:33 36.565413 -119.241167 354 23953ft 246kts
26-Jun-20 14:34 36.633220 -119.250304 354 23953ft 246kts
26-Jun-20 14:35 36.701236 -119.259466 354 23950ft 246kts
26-Jun-20 14:36 36.769051 -119.268635 354 23945ft 246kts
26-Jun-20 14:37 36.837178 -119.277859 354 23943ft 245kts
26-Jun-20 14:38 36.905140 -119.287077 354 23942ft 245kts
26-Jun-20 14:39 36.972789 -119.296271 354 23941ft 245kts
26-Jun-20 14:40 37.040876 -119.305541 355 23941ft 247kts
26-Jun-20 14:41 37.109532 -119.314909 356 23946ft 251kts
26-Jun-20 14:43 37.179150 -119.324435 356 24053ft 252kts
26-Jun-20 14:44 37.248985 -119.333987 356 24191ft 252kts
26-Jun-20 14:45 37.318922 -119.343563 356 24258ft 254kts
26-Jun-20 14:46 37.389447 -119.353258 356 24241ft 257kts
26-Jun-20 14:47 37.460666 -119.363037 356 24233ft 257kts
26-Jun-20 14:48 37.531625 -119.372835 356 24288ft 256kts
26-Jun-20 14:49 37.602408 -119.382625 356 24357ft 255kts
26-Jun-20 14:50 37.673183 -119.392419 356 24366ft 256kts
26-Jun-20 14:51 37.743952 -119.402231 356 24365ft 257kts
26-Jun-20 14:52 37.815129 -119.412119 356 24365ft 257kts
26-Jun-20 14:53 37.886154 -119.422012 356 24365ft 257kts
26-Jun-20 14:54 37.957374 -119.431949 356 24364ft 257kts
26-Jun-20 14:55 38.028573 -119.441903 356 24364ft 257kts
26-Jun-20 14:56 38.099777 -119.451873 356 24345ft 257kts
26-Jun-20 14:56 38.159363 -119.460227 356 24241ft 260kts
26-Jun-20 14:58 38.243630 -119.472056 356 24043ft 260kts
26-Jun-20 14:59 38.314932 -119.482103 356 24024ft 256kts
26-Jun-20 14:59 38.373767 -119.490417 356 24019ft 255kts
26-Jun-20 15:01 38.456099 -119.502069 356 24009ft 255kts
26-Jun-20 15:01 38.514823 -119.510387 356 24003ft 255kts
26-Jun-20 15:02 38.585002 -119.520342 356 24000ft 254kts
26-Jun-20 15:04 38.667036 -119.532013 356 24005ft 254kts
26-Jun-20 15:04 38.725442 -119.540334 356 24000ft 254kts
26-Jun-20 15:05 38.795680 -119.550373 356 24001ft 254kts
26-Jun-20 15:06 38.864793 -119.560101 356 23456ft 255kts
26-Jun-20 15:07 38.933137 -119.569639 355 21644ft 243kts
26-Jun-20 15:08 39.000320 -119.579317 355 19667ft 244kts
26-Jun-20 15:09 39.067850 -119.588973 355 17666ft 247kts
26-Jun-20 15:10 39.136414 -119.598855 354 15654ft 248kts
26-Jun-20 15:11 39.204751 -119.608730 354 13625ft 250kts
26-Jun-20 15:12 39.273254 -119.624956 330 11304ft 253kts
26-Jun-20 15:13 39.319154 -119.691072 301 8725ft 251kts
26-Jun-20 15:14 39.358287 -119.745923 328 7269ft 153kts
26-Jun-20 15:15 39.396749 -119.765952 351 6187ft 147kts
26-Jun-20 15:16 39.437034 -119.767284 2 5456ft 146kts
26-Jun-20 15:17 39.475951 -119.766880 2 4696ft 129kts
26-Jun-20 15:18 39.500934 -119.766754 356 4419ft 39kts
26-Jun-20 15:19 39.503494 -119.765729 358 4419ft 10kts
26-Jun-20 15:20 39.505307 -119.765429 334 4419ft 5kts
26-Jun-20 15:21 39.505419 -119.765280 90 4419ft 0kts
26-Jun-20 15:22 39.505419 -119.765280 90 4419ft 0kts

Navigation Log

Ident Type
Flight plan parsing failed, navigation log unavailable